Time;durP1;ratioP1;P1;durP2;ratioP2;P2;SDS_P1;SDS_P2;PMS_P1;PMS_P2;Temp;Humidity;BMP_temperature;BMP_pressure;BME280_temperature;BME280_humidity;BME280_pressure;Samples;Min_cycle;Max_cycle;Signal;HPM_P1;HPM_P2
2021/05/18 00:00:44;;;;;;;0.52;0.15;;;9.90;75.30;;;;;;5093110;28;20477;-80
2021/05/18 00:03:10;;;;;;;1.85;0.13;;;9.80;76.60;;;;;;5092951;28;20099;-81
2021/05/18 00:05:39;;;;;;;0.20;0.20;;;9.80;75.60;;;;;;5093181;28;20127;-81
2021/05/18 00:08:07;;;;;;;1.20;0.40;;;9.80;75.60;;;;;;5093044;28;20035;-80
2021/05/18 00:13:44;;;;;;;3.60;0.47;;;9.80;75.80;;;;;;5092585;28;20071;-80
2021/05/18 00:16:11;;;;;;;1.75;0.30;;;9.90;75.70;;;;;;5093057;28;20048;-80
2021/05/18 00:18:37;;;;;;;1.70;0.15;;;9.90;75.70;;;;;;5092924;28;20058;-80
2021/05/18 00:21:04;;;;;;;0.65;0.13;;;10.00;75.20;;;;;;5092832;28;20030;-80
2021/05/18 00:23:30;;;;;;;1.67;0.22;;;10.00;75.20;;;;;;5092902;28;20111;-80
2021/05/18 00:25:56;;;;;;;0.80;0.25;;;10.00;75.30;;;;;;5092849;28;20473;-81
2021/05/18 00:28:22;;;;;;;1.27;0.30;;;9.90;75.70;;;;;;5091524;28;20163;-80
2021/05/18 00:30:48;;;;;;;3.13;0.57;;;9.90;75.80;;;;;;5092723;28;20020;-81
2021/05/18 00:33:20;;;;;;;0.32;0.22;;;9.90;75.80;;;;;;5092923;28;20440;-80
2021/05/18 00:35:47;;;;;;;1.25;0.28;;;9.90;75.80;;;;;;5092885;28;20024;-80
2021/05/18 00:38:14;;;;;;;1.02;0.30;;;9.90;75.90;;;;;;5091383;28;20539;-81
2021/05/18 00:40:41;;;;;;;1.08;0.20;;;9.90;76.00;;;;;;5092689;28;20024;-81
2021/05/18 00:43:07;;;;;;;0.85;0.10;;;9.90;75.90;;;;;;5094546;28;20031;-80
2021/05/18 00:45:35;;;;;;;0.75;0.20;;;9.90;75.90;;;;;;5095294;28;20044;-78
2021/05/18 00:48:03;;;;;;;1.13;0.28;;;9.80;76.00;;;;;;5096763;28;20024;-78
2021/05/18 00:50:30;;;;;;;2.05;0.30;;;9.80;76.10;;;;;;5097138;28;20069;-81
2021/05/18 00:52:56;;;;;;;1.15;0.35;;;9.80;76.00;;;;;;5097431;28;20038;-81
2021/05/18 00:55:36;;;;;;;3.72;0.38;;;9.70;76.20;;;;;;5098111;28;20024;-80
2021/05/18 01:00:47;;;;;;;1.85;0.20;;;9.70;76.20;;;;;;5096811;28;20046;-79
2021/05/18 01:03:12;;;;;;;1.90;0.40;;;9.70;76.10;;;;;;5096330;28;20516;-79
2021/05/18 01:08:22;;;;;;;0.70;0.25;;;9.70;76.20;;;;;;5098757;28;20055;-84
2021/05/18 01:10:48;;;;;;;1.65;0.20;;;9.70;76.00;;;;;;5110794;28;20036;-80
2021/05/18 01:13:14;;;;;;;0.28;0.22;;;9.70;76.10;;;;;;5112786;28;20036;-81
2021/05/18 01:15:40;;;;;;;0.70;0.30;;;9.60;76.30;;;;;;5097699;28;20024;-82
2021/05/18 01:18:06;;;;;;;2.28;0.57;;;9.70;76.40;;;;;;5097236;28;20024;-83
2021/05/18 01:20:41;;;;;;;1.02;0.28;;;9.70;76.40;;;;;;5096788;28;20020;-84
2021/05/18 01:23:06;;;;;;;1.75;0.30;;;9.70;76.30;;;;;;5096798;28;20016;-82
2021/05/18 01:25:32;;;;;;;1.65;0.20;;;9.70;76.20;;;;;;5094968;28;20396;-82
2021/05/18 01:27:58;;;;;;;0.35;0.28;;;9.70;76.10;;;;;;5095370;28;20020;-82
2021/05/18 01:30:23;;;;;;;0.73;0.30;;;9.60;76.40;;;;;;5097811;28;20032;-81
2021/05/18 01:32:49;;;;;;;1.20;0.20;;;9.60;76.50;;;;;;5097010;28;20377;-80
2021/05/18 01:35:15;;;;;;;1.02;0.20;;;9.60;76.50;;;;;;5098497;28;20492;-79
2021/05/18 01:37:41;;;;;;;1.45;0.22;;;9.60;76.10;;;;;;5094801;28;20028;-79
2021/05/18 01:42:57;;;;;;;2.95;0.45;;;9.60;76.20;;;;;;5095651;28;20400;-79
2021/05/18 01:45:29;;;;;;;0.60;0.30;;;9.50;76.00;;;;;;5095255;28;20032;-79
2021/05/18 01:48:05;;;;;;;0.73;0.32;;;9.60;75.80;;;;;;5094403;28;20055;-79
2021/05/18 01:50:31;;;;;;;1.33;0.22;;;9.60;75.80;;;;;;5095599;28;20024;-80
2021/05/18 01:52:57;;;;;;;3.83;0.30;;;9.60;76.00;;;;;;5094974;28;20036;-79
2021/05/18 01:57:59;;;;;;;;;;;9.70;75.90;;;;;;5095859;28;20376;-78
2021/05/18 02:00:26;;;;;;;;;;;9.70;75.80;;;;;;5095943;28;19904;-80
2021/05/18 02:02:53;;;;;;;1.67;0.47;;;9.60;75.90;;;;;;5095317;28;19911;-79
2021/05/18 02:05:21;;;;;;;0.60;0.32;;;9.70;76.10;;;;;;5095408;28;20032;-80
2021/05/18 02:07:49;;;;;;;1.65;0.40;;;9.60;76.10;;;;;;5095348;28;20028;-79
2021/05/18 02:10:18;;;;;;;0.20;0.20;;;9.70;76.00;;;;;;5095417;28;20527;-80
2021/05/18 02:12:44;;;;;;;0.55;0.30;;;9.70;76.10;;;;;;5095044;28;20484;-80
2021/05/18 02:15:39;;;;;;;1.10;0.43;;;9.70;76.00;;;;;;5094974;28;20141;-80
2021/05/18 02:21:03;;;;;;;0.75;0.40;;;9.70;76.00;;;;;;5095119;28;20031;-80
2021/05/18 02:26:14;;;;;;;0.98;0.40;;;9.80;75.70;;;;;;5095266;28;20031;-80
2021/05/18 02:28:40;;;;;;;1.35;0.25;;;9.70;75.40;;;;;;5093529;28;20032;-80
2021/05/18 02:31:06;;;;;;;1.45;0.38;;;9.80;75.30;;;;;;5094857;28;20032;-79
2021/05/18 02:33:31;;;;;;;1.17;0.40;;;9.80;75.40;;;;;;5094802;28;20392;-79
2021/05/18 02:35:57;;;;;;;2.47;0.47;;;9.80;75.40;;;;;;5093356;28;20077;-79
2021/05/18 02:38:23;;;;;;;1.10;0.20;;;9.80;75.30;;;;;;5093569;28;20464;-79
2021/05/18 02:40:48;;;;;;;0.28;0.20;;;9.70;75.70;;;;;;5093327;28;20016;-79
2021/05/18 02:43:20;;;;;;;1.45;0.20;;;9.70;75.80;;;;;;5094656;28;20024;-81
2021/05/18 02:45:59;;;;;;;0.50;0.20;;;9.70;76.00;;;;;;5094369;28;20052;-82
2021/05/18 02:51:08;;;;;;;0.80;0.40;;;9.70;76.50;;;;;;5094454;28;20086;-79
2021/05/18 02:53:34;;;;;;;0.70;0.28;;;9.70;75.60;;;;;;5094361;28;20028;-79
2021/05/18 02:56:06;;;;;;;0.35;0.20;;;9.70;75.60;;;;;;5094362;28;20034;-80
2021/05/18 02:58:34;;;;;;;0.38;0.20;;;9.70;75.40;;;;;;5093080;28;20020;-80
2021/05/18 03:01:00;;;;;;;0.28;0.20;;;9.70;75.80;;;;;;5092902;28;20024;-80
2021/05/18 03:03:25;;;;;;;0.65;0.20;;;9.70;76.30;;;;;;5094209;28;20023;-81
2021/05/18 03:05:51;;;;;;;1.58;0.20;;;9.70;76.30;;;;;;5092598;28;20016;-81
2021/05/18 03:08:18;;;;;;;1.50;0.10;;;9.70;76.30;;;;;;5093011;28;20485;-81
2021/05/18 03:10:44;;;;;;;0.40;0.20;;;9.70;76.40;;;;;;5094089;28;20016;-81
2021/05/18 03:13:10;;;;;;;0.25;0.20;;;9.70;76.60;;;;;;5093297;28;20039;-82
2021/05/18 03:15:36;;;;;;;0.55;0.17;;;9.70;76.00;;;;;;5093489;28;20119;-81
2021/05/18 03:18:03;;;;;;;0.73;0.10;;;9.70;76.10;;;;;;5092828;28;20108;-82
2021/05/18 03:20:29;;;;;;;0.90;0.43;;;9.70;75.70;;;;;;5092400;28;20610;-82
2021/05/18 03:22:54;;;;;;;0.85;0.32;;;9.70;76.00;;;;;;5094288;28;20366;-82
2021/05/18 03:25:21;;;;;;;1.55;0.40;;;9.60;75.70;;;;;;5093613;28;20035;-82
2021/05/18 03:27:46;;;;;;;1.23;0.38;;;9.60;75.70;;;;;;5092384;28;20027;-81
2021/05/18 03:30:24;;;;;;;4.55;0.35;;;9.70;75.50;;;;;;5092410;28;20031;-83
2021/05/18 03:35:34;;;;;;;0.45;0.10;;;9.70;75.40;;;;;;5093762;28;20027;-83
2021/05/18 03:38:05;;;;;;;1.20;0.40;;;9.60;75.50;;;;;;5092340;28;20047;-83
2021/05/18 03:40:34;;;;;;;0.68;0.20;;;9.60;75.40;;;;;;5092171;28;20082;-83
2021/05/18 03:43:21;;;;;;;0.70;0.20;;;9.60;75.70;;;;;;5093278;28;20053;-83
2021/05/18 03:45:51;;;;;;;0.10;0.10;;;9.60;75.80;;;;;;5091981;28;20051;-83
2021/05/18 04:04:29;;;;;;;0.65;0.10;;;9.70;77.30;;;;;;5093503;28;20364;-83
2021/05/18 04:12:44;;;;;;;1.73;0.30;;;9.60;77.70;;;;;;5093220;28;20078;-83
2021/05/18 04:18:15;;;;;;;0.20;0.20;;;9.70;77.80;;;;;;5092397;28;20490;-80
2021/05/18 04:50:42;;;;;;;0.38;0.20;;;9.70;77.40;;;;;;5092867;28;20039;-81
2021/05/18 04:53:33;;;;;;;1.08;0.10;;;9.50;77.00;;;;;;5109243;28;20032;-81
2021/05/18 05:01:47;;;;;;;2.55;0.17;;;9.30;79.40;;;;;;5093015;28;20090;-82
2021/05/18 05:06:58;;;;;;;1.77;1.00;;;9.20;79.40;;;;;;5093105;28;20020;-82
2021/05/18 05:09:29;;;;;;;0.10;0.10;;;9.20;78.80;;;;;;5093261;28;20107;-82
2021/05/18 05:14:40;;;;;;;0.22;0.10;;;9.00;79.90;;;;;;5092468;28;20027;-82
2021/05/18 05:17:06;;;;;;;0.28;0.17;;;9.00;80.00;;;;;;5090944;28;20024;-82
2021/05/18 05:19:32;;;;;;;0.80;0.10;;;9.00;81.00;;;;;;5091032;28;20024;-80
2021/05/18 05:21:58;;;;;;;0.98;0.20;;;9.10;80.00;;;;;;5092336;28;20150;-80
2021/05/18 05:24:24;;;;;;;0.30;0.10;;;9.10;80.30;;;;;;5091274;28;20032;-79
2021/05/18 05:26:51;;;;;;;1.85;0.28;;;9.10;77.90;;;;;;5092075;28;20039;-80
2021/05/18 05:29:17;;;;;;;1.65;0.10;;;9.20;78.00;;;;;;5094697;28;20365;-80
2021/05/18 05:31:43;;;;;;;0.17;0.15;;;9.40;77.80;;;;;;5095449;28;20039;-80
2021/05/18 05:34:09;;;;;;;0.20;0.15;;;9.50;77.30;;;;;;5094176;28;20031;-80
2021/05/18 05:36:37;;;;;;;0.08;0.08;;;9.50;76.20;;;;;;5095632;28;20488;-80
2021/05/18 05:39:08;;;;;;;0.40;0.00;;;9.50;75.30;;;;;;5095721;28;20024;-82
2021/05/18 05:41:34;;;;;;;0.00;0.00;;;9.40;75.10;;;;;;5094368;28;20031;-83
2021/05/18 05:44:00;;;;;;;0.32;0.20;;;9.40;75.70;;;;;;5094423;28;20501;-83
2021/05/18 05:46:26;;;;;;;0.00;0.00;;;9.50;76.20;;;;;;5094468;28;20416;-81
2021/05/18 05:48:54;;;;;;;0.82;0.10;;;9.40;76.00;;;;;;5094237;28;20051;-82
2021/05/18 05:51:27;;;;;;;0.05;0.00;;;9.40;76.70;;;;;;5094026;28;20552;-82
2021/05/18 05:53:55;;;;;;;0.00;0.00;;;9.40;75.60;;;;;;5095370;28;20069;-81
2021/05/18 05:56:21;;;;;;;3.50;0.10;;;9.20;76.60;;;;;;5095819;28;20016;-79
2021/05/18 05:58:48;;;;;;;0.80;0.10;;;9.20;76.50;;;;;;5094040;28;20028;-80
2021/05/18 06:01:14;;;;;;;0.55;0.10;;;9.10;77.70;;;;;;5095284;28;20055;-79
2021/05/18 06:03:40;;;;;;;0.63;0.30;;;9.20;77.40;;;;;;5094915;28;20024;-79
2021/05/18 06:06:06;;;;;;;0.10;0.10;;;9.30;77.00;;;;;;5095277;28;20042;-81
2021/05/18 06:08:37;;;;;;;0.50;0.30;;;9.40;76.60;;;;;;5095144;28;20384;-82
2021/05/18 06:11:09;;;;;;;0.68;0.40;;;9.30;76.70;;;;;;5093576;28;20028;-81
2021/05/18 06:13:47;;;;;;;0.20;0.17;;;9.30;77.20;;;;;;5095425;28;20062;-81
2021/05/18 06:43:14;;;;;;;6.63;1.88;;;9.10;83.60;;;;;;5094497;28;20409;-79
2021/05/18 06:48:18;;;;;;;9.60;2.28;;;8.60;82.40;;;;;;5094697;28;20081;-79
2021/05/18 06:50:45;;;;;;;2.17;1.05;;;8.60;83.60;;;;;;5094148;28;20131;-79
2021/05/18 06:53:11;;;;;;;0.65;0.40;;;8.50;85.00;;;;;;5094227;28;20032;-79
2021/05/18 06:55:37;;;;;;;0.75;0.25;;;8.30;84.20;;;;;;5092954;28;20395;-78
2021/05/18 06:58:09;;;;;;;1.00;0.40;;;8.20;83.90;;;;;;5093113;28;20499;-79
2021/05/18 07:00:37;;;;;;;1.95;0.32;;;8.20;84.80;;;;;;5092813;28;20024;-79
2021/05/18 07:03:10;;;;;;;1.65;0.63;;;8.10;85.40;;;;;;5093473;28;20020;-82
2021/05/18 07:05:44;;;;;;;0.75;0.50;;;8.10;86.00;;;;;;5094349;28;20028;-82
2021/05/18 07:10:38;;;;;;;1.08;0.50;;;8.20;87.70;;;;;;5094685;28;20028;-83
2021/05/18 07:13:04;;;;;;;1.60;0.40;;;8.30;87.80;;;;;;5092779;28;20396;-84
2021/05/18 07:15:30;;;;;;;1.20;0.40;;;8.50;87.50;;;;;;5094801;28;20016;-82
2021/05/18 07:17:56;;;;;;;4.18;0.73;;;8.70;86.80;;;;;;5093248;28;20024;-81
2021/05/18 07:20:22;;;;;;;2.13;0.63;;;8.80;86.30;;;;;;5092539;28;20020;-79
2021/05/18 07:22:56;;;;;;;1.15;0.40;;;9.00;85.80;;;;;;5094153;28;20028;-82
2021/05/18 07:25:22;;;;;;;3.15;0.80;;;9.20;85.70;;;;;;5094432;28;20039;-82
2021/05/18 07:27:49;;;;;;;1.98;0.93;;;9.30;85.20;;;;;;5093660;28;20032;-82
2021/05/18 07:30:15;;;;;;;1.65;0.50;;;9.40;85.10;;;;;;5092713;28;20481;-82
2021/05/18 07:32:41;;;;;;;3.28;0.80;;;9.60;85.10;;;;;;5093555;28;20036;-79
2021/05/18 07:35:07;;;;;;;1.23;0.60;;;9.60;84.20;;;;;;5098099;28;20020;-78
2021/05/18 07:37:34;;;;;;;1.42;0.40;;;9.60;82.00;;;;;;5098751;28;20035;-79
2021/05/18 07:40:00;;;;;;;0.40;0.40;;;9.80;82.00;;;;;;5093215;28;20326;-82
2021/05/18 07:42:26;;;;;;;1.08;0.40;;;9.80;82.30;;;;;;5093542;28;20077;-76
2021/05/18 07:44:52;;;;;;;1.10;0.43;;;9.90;83.70;;;;;;5092974;28;20055;-81
2021/05/18 07:47:19;;;;;;;7.97;0.88;;;10.00;83.70;;;;;;5093603;28;20032;-81
2021/05/18 07:49:49;;;;;;;4.90;0.80;;;10.50;88.60;;;;;;5099319;28;20016;-81
2021/05/18 08:00:38;;;;;;;3.95;0.57;;;11.90;73.30;;;;;;5093377;28;20035;-76
2021/05/18 08:05:52;;;;;;;2.25;0.82;;;12.30;71.00;;;;;;5093057;28;20599;-81
2021/05/18 08:08:19;;;;;;;1.38;0.40;;;12.50;69.80;;;;;;5093319;28;20033;-82
2021/05/18 08:10:47;;;;;;;1.55;0.65;;;12.60;68.70;;;;;;5092969;28;20099;-82
2021/05/18 08:13:18;;;;;;;1.90;0.45;;;12.70;70.00;;;;;;5092770;28;20069;-81
2021/05/18 08:16:24;;;;;;;1.90;0.50;;;12.80;67.10;;;;;;5093004;28;20035;-82
2021/05/18 09:44:02;;;;;;;3.45;1.08;;;12.00;67.90;;;;;;5096027;28;20031;-84
2021/05/18 10:34:30;;;;;;;4.03;0.40;;;10.80;75.30;;;;;;5095459;28;20093;-83
2021/05/18 10:37:17;;;;;;;1.67;0.60;;;11.10;74.80;;;;;;5094825;28;20468;-82
2021/05/18 10:39:43;;;;;;;1.60;0.50;;;11.30;72.00;;;;;;5094716;28;20032;-82
2021/05/18 10:42:12;;;;;;;2.50;0.30;;;11.30;69.70;;;;;;5093270;28;20030;-81
2021/05/18 10:44:55;;;;;;;2.63;0.60;;;11.30;69.00;;;;;;5093979;28;20058;-82
2021/05/18 10:47:43;;;;;;;1.38;0.40;;;11.40;67.10;;;;;;5094034;28;20016;-82
2021/05/18 10:50:09;;;;;;;3.20;0.45;;;11.50;67.30;;;;;;5092999;28;20028;-82
2021/05/18 10:52:38;;;;;;;1.02;0.50;;;12.00;67.50;;;;;;5094012;28;20032;-80
2021/05/18 10:55:07;;;;;;;0.70;0.32;;;12.40;65.40;;;;;;5094204;28;20492;-82
2021/05/18 10:57:33;;;;;;;0.65;0.30;;;12.60;64.30;;;;;;5093789;28;20027;-82
2021/05/18 11:00:08;;;;;;;0.98;0.25;;;12.80;61.90;;;;;;5094268;28;20020;-82
2021/05/18 11:02:37;;;;;;;2.53;0.40;;;12.70;61.70;;;;;;5094046;28;20035;-82
2021/05/18 11:05:08;;;;;;;1.13;0.20;;;12.80;63.30;;;;;;5092856;28;20029;-82
2021/05/18 11:07:38;;;;;;;1.00;0.50;;;12.70;62.20;;;;;;5092840;28;20042;-82
2021/05/18 11:10:06;;;;;;;2.03;0.35;;;12.40;62.40;;;;;;5092901;28;20024;-82
2021/05/18 11:12:32;;;;;;;1.45;0.50;;;12.10;63.80;;;;;;5092662;28;20396;-82
2021/05/18 11:14:58;;;;;;;1.15;0.50;;;12.10;63.80;;;;;;5092857;28;20020;-83
2021/05/18 11:17:29;;;;;;;1.25;0.30;;;12.20;64.90;;;;;;5092697;28;20445;-84
2021/05/18 11:19:59;;;;;;;2.15;0.45;;;12.60;65.30;;;;;;5092526;28;20028;-83
2021/05/18 11:25:10;;;;;;;1.08;0.30;;;13.70;65.20;;;;;;5094174;28;20023;-82
2021/05/18 11:27:37;;;;;;;0.68;0.30;;;13.90;60.00;;;;;;5093241;28;20491;-82
2021/05/18 11:30:05;;;;;;;5.18;0.50;;;13.90;59.20;;;;;;5092330;28;20069;-82
2021/05/18 11:32:30;;;;;;;3.05;0.38;;;13.90;58.60;;;;;;5093439;28;20032;-78
2021/05/18 11:34:59;;;;;;;1.13;0.30;;;13.90;58.80;;;;;;5092356;28;20085;-82
2021/05/18 11:37:26;;;;;;;2.50;1.00;;;14.40;56.40;;;;;;5092084;28;20024;-81
2021/05/18 11:40:08;;;;;;;1.33;0.40;;;14.50;56.20;;;;;;5093495;28;20016;-82
2021/05/18 11:42:33;;;;;;;5.22;0.52;;;14.60;55.20;;;;;;5092035;28;20384;-81
2021/05/18 11:45:20;;;;;;;0.93;0.35;;;14.60;55.20;;;;;;5092278;28;20044;-80
2021/05/18 11:47:48;;;;;;;0.93;0.47;;;14.60;54.70;;;;;;5093554;28;20107;-81
2021/05/18 11:50:25;;;;;;;1.00;0.30;;;14.20;54.90;;;;;;5093554;28;20024;-80
2021/05/18 11:52:53;;;;;;;2.58;0.50;;;14.30;55.60;;;;;;5093459;28;20090;-79
2021/05/18 11:55:23;;;;;;;1.65;0.40;;;14.30;55.20;;;;;;5094076;28;20024;-80
2021/05/18 11:57:52;;;;;;;2.65;0.38;;;14.20;54.90;;;;;;5092191;28;20051;-79
2021/05/18 12:00:27;;;;;;;2.25;0.60;;;13.70;56.00;;;;;;5093416;28;20043;-79
2021/05/18 12:03:09;;;;;;;2.88;0.50;;;13.70;57.60;;;;;;5091928;28;20521;-81
2021/05/18 12:05:53;;;;;;;1.60;0.50;;;13.80;57.90;;;;;;5093393;28;20034;-80
2021/05/18 12:08:30;;;;;;;5.50;0.82;;;13.90;57.70;;;;;;5094744;28;20065;-80
2021/05/18 12:11:09;;;;;;;1.48;0.60;;;13.80;59.40;;;;;;5100070;28;20107;-81
2021/05/18 12:13:34;;;;;;;0.75;0.30;;;13.60;60.50;;;;;;5097423;28;20032;-81
2021/05/18 12:16:02;;;;;;;3.90;0.60;;;13.60;57.20;;;;;;5091876;28;20113;-83
2021/05/18 12:18:35;;;;;;;2.63;0.30;;;13.20;55.30;;;;;;5094088;28;20027;-83
2021/05/18 12:21:04;;;;;;;2.90;0.40;;;13.20;53.50;;;;;;5093084;28;20077;-81
2021/05/18 12:23:29;;;;;;;2.28;0.20;;;13.30;51.80;;;;;;5093402;28;20070;-79
2021/05/18 12:26:18;;;;;;;0.73;0.30;;;13.30;51.70;;;;;;5093470;28;20024;-80
2021/05/18 12:29:00;;;;;;;3.08;1.45;;;13.10;51.70;;;;;;5093379;28;20031;-81
2021/05/18 12:31:33;;;;;;;4.18;0.32;;;12.80;52.20;;;;;;5092058;28;20035;-82
2021/05/18 12:34:00;;;;;;;3.13;0.40;;;12.80;54.10;;;;;;5093221;28;20031;-83
2021/05/18 12:36:28;;;;;;;1.13;0.30;;;12.90;56.20;;;;;;5092107;28;20053;-85
2021/05/18 12:39:06;;;;;;;1.33;0.40;;;12.90;58.20;;;;;;5095638;28;20020;-82
2021/05/18 12:41:47;;;;;;;3.28;0.45;;;13.00;60.00;;;;;;5097335;28;20020;-83
2021/05/18 12:44:12;;;;;;;1.05;0.20;;;13.20;59.00;;;;;;5096888;28;20514;-80
2021/05/18 12:46:51;;;;;;;1.55;0.30;;;13.30;57.60;;;;;;5095656;28;20027;-81
2021/05/18 12:49:29;;;;;;;2.63;0.65;;;13.40;56.50;;;;;;5097258;28;20020;-80
2021/05/18 12:52:13;;;;;;;1.90;0.40;;;13.50;55.60;;;;;;5095591;28;20041;-81
2021/05/18 12:54:47;;;;;;;2.45;0.35;;;13.30;55.40;;;;;;5097026;28;20020;-80
2021/05/18 12:57:15;;;;;;;2.58;0.32;;;13.10;55.90;;;;;;5096813;28;20055;-80
2021/05/18 12:59:55;;;;;;;1.00;0.20;;;12.30;57.80;;;;;;5096822;28;20062;-80
2021/05/18 13:02:28;;;;;;;1.02;0.22;;;11.70;61.40;;;;;;5096851;28;20077;-79
2021/05/18 13:05:03;;;;;;;0.17;0.10;;;11.50;64.30;;;;;;5096846;28;20077;-80
2021/05/18 13:07:29;;;;;;;1.27;0.50;;;11.40;67.60;;;;;;5097793;28;20024;-80
2021/05/18 13:10:13;;;;;;;5.47;0.52;;;11.00;71.70;;;;;;5096693;28;20028;-79
2021/05/18 13:12:39;;;;;;;0.95;0.47;;;10.80;73.40;;;;;;5099500;28;20031;-79
2021/05/18 13:15:18;;;;;;;1.17;0.70;;;10.70;75.50;;;;;;5098098;28;20038;-81
2021/05/18 13:18:01;;;;;;;1.38;0.40;;;11.10;75.10;;;;;;5096482;28;20024;-80
2021/05/18 13:20:55;;;;;;;0.50;0.40;;;11.30;70.50;;;;;;5104624;28;20103;-79
2021/05/18 13:23:55;;;;;;;1.75;0.50;;;11.60;72.40;;;;;;5097275;28;20442;-79
2021/05/18 13:26:28;;;;;;;2.88;0.47;;;12.00;71.00;;;;;;5099898;28;20026;-79
2021/05/18 13:29:09;;;;;;;0.80;0.20;;;11.80;68.70;;;;;;5096868;28;20095;-79
2021/05/18 13:31:38;;;;;;;2.08;0.77;;;11.90;68.60;;;;;;5095186;28;20540;-79
2021/05/18 13:34:04;;;;;;;0.68;0.40;;;12.20;69.50;;;;;;5095923;28;20028;-81
2021/05/18 13:36:33;;;;;;;1.35;0.35;;;12.50;66.00;;;;;;5094564;28;20115;-80
2021/05/18 13:39:09;;;;;;;0.70;0.43;;;12.90;65.00;;;;;;5095759;28;20024;-80
2021/05/18 13:41:36;;;;;;;1.27;0.55;;;13.40;62.40;;;;;;5095728;28;20020;-80
2021/05/18 13:44:03;;;;;;;1.75;0.35;;;13.60;61.00;;;;;;5095623;28;20032;-80
2021/05/18 13:46:29;;;;;;;1.55;0.50;;;13.70;61.40;;;;;;5094414;28;20039;-80
2021/05/18 13:48:54;;;;;;;0.43;0.20;;;13.50;62.70;;;;;;5095594;28;20024;-80
2021/05/18 13:51:20;;;;;;;1.02;0.40;;;13.60;60.80;;;;;;5094038;28;20024;-80
2021/05/18 13:53:46;;;;;;;0.80;0.30;;;13.50;60.90;;;;;;5095610;28;20046;-80
2021/05/18 13:56:11;;;;;;;0.70;0.20;;;13.60;59.10;;;;;;5094022;28;20388;-80
2021/05/18 13:58:37;;;;;;;0.52;0.30;;;13.60;58.70;;;;;;5093884;28;20043;-80
2021/05/18 14:01:12;;;;;;;0.20;0.15;;;13.50;57.50;;;;;;5093918;28;20350;-80
2021/05/18 14:03:37;;;;;;;0.65;0.40;;;13.60;57.20;;;;;;5095423;28;20017;-82
2021/05/18 14:06:05;;;;;;;0.63;0.20;;;13.80;58.60;;;;;;5094962;28;20028;-80
2021/05/18 14:08:35;;;;;;;1.45;0.50;;;13.90;57.40;;;;;;5093935;28;20024;-81
2021/05/18 14:11:19;;;;;;;2.15;0.10;;;14.10;56.40;;;;;;5094963;28;20022;-80
2021/05/18 14:13:48;;;;;;;1.48;0.30;;;14.10;56.80;;;;;;5094842;28;20032;-79
2021/05/18 14:16:18;;;;;;;1.15;0.40;;;14.10;58.80;;;;;;5095277;28;20020;-83
2021/05/18 14:18:46;;;;;;;1.05;0.32;;;14.40;57.70;;;;;;5095241;28;20024;-80
2021/05/18 14:21:12;;;;;;;0.95;0.20;;;14.50;57.00;;;;;;5095103;28;20046;-80
2021/05/18 14:23:46;;;;;;;2.35;0.28;;;14.30;56.00;;;;;;5095008;28;20536;-81
2021/05/18 14:26:12;;;;;;;0.77;0.10;;;14.40;54.10;;;;;;5095074;28;20020;-81
2021/05/18 14:28:38;;;;;;;2.33;0.40;;;14.60;51.30;;;;;;5094773;28;20038;-81
2021/05/18 14:31:07;;;;;;;3.35;0.47;;;14.30;52.50;;;;;;5094753;28;20027;-82
2021/05/18 14:33:33;;;;;;;2.20;0.50;;;14.30;54.70;;;;;;5094767;28;20119;-81
2021/05/18 14:35:59;;;;;;;1.67;0.70;;;14.40;55.70;;;;;;5094734;28;20028;-82
2021/05/18 14:38:25;;;;;;;1.73;0.60;;;14.40;54.20;;;;;;5094904;28;20032;-81
2021/05/18 14:42:50;;;;;;;1.90;0.50;;;14.60;53.50;;;;;;5093373;28;20063;-80
2021/05/18 14:46:37;;;;;;;1.23;0.50;;;14.90;51.50;;;;;;5094647;28;20152;-81
2021/05/18 14:57:03;;;;;;;1.80;0.73;;;15.10;51.70;;;;;;5094393;28;20372;-79
2021/05/18 14:59:29;;;;;;;4.47;1.20;;;15.10;52.10;;;;;;5094127;28;20028;-79
2021/05/18 15:01:55;;;;;;;1.98;0.70;;;14.70;52.80;;;;;;5093224;28;20047;-77
2021/05/18 15:04:20;;;;;;;1.92;0.73;;;14.50;53.60;;;;;;5094057;28;20096;-79
2021/05/18 15:06:51;;;;;;;0.95;0.40;;;14.60;54.00;;;;;;5094106;28;20028;-80
2021/05/18 15:09:17;;;;;;;1.83;0.57;;;14.40;54.80;;;;;;5098659;28;20028;-78
2021/05/18 15:11:42;;;;;;;0.70;0.43;;;14.40;55.30;;;;;;5097944;28;20037;-79
2021/05/18 15:14:09;;;;;;;2.22;0.50;;;14.40;55.50;;;;;;5100747;28;20079;-78
2021/05/18 15:16:34;;;;;;;0.90;0.30;;;14.40;54.80;;;;;;5098984;28;20051;-77
2021/05/18 15:19:08;;;;;;;3.20;0.40;;;14.40;55.20;;;;;;5094877;28;20062;-78
2021/05/18 15:21:35;;;;;;;2.70;0.77;;;14.30;55.20;;;;;;5094457;28;20032;-78
2021/05/18 15:24:01;;;;;;;1.13;0.30;;;14.10;56.30;;;;;;5094479;28;20016;-78
2021/05/18 15:26:26;;;;;;;1.75;0.60;;;14.00;56.30;;;;;;5093741;28;20031;-80
2021/05/18 15:28:52;;;;;;;2.95;0.45;;;14.00;55.70;;;;;;5093991;28;20438;-78
2021/05/18 15:31:18;;;;;;;5.22;0.47;;;13.70;57.70;;;;;;5093150;28;20102;-81
2021/05/18 15:33:44;;;;;;;1.80;0.20;;;12.70;58.30;;;;;;5094083;28;20024;-79
2021/05/18 15:36:09;;;;;;;3.40;0.30;;;12.20;59.70;;;;;;5093685;28;20059;-79
2021/05/18 15:38:38;;;;;;;2.25;0.55;;;11.70;62.40;;;;;;5093726;28;20052;-79
2021/05/18 15:41:11;;;;;;;2.92;0.25;;;11.50;65.40;;;;;;5093788;28;20074;-80
2021/05/18 15:43:37;;;;;;;1.15;0.43;;;11.20;67.10;;;;;;5093501;28;20084;-77
2021/05/18 15:46:03;;;;;;;3.20;0.35;;;10.80;69.20;;;;;;5093336;28;20149;-80
2021/05/18 15:48:30;;;;;;;0.57;0.25;;;10.80;71.20;;;;;;5093624;28;20418;-77
2021/05/18 15:50:56;;;;;;;2.40;0.55;;;11.00;72.30;;;;;;5093570;28;20483;-80
2021/05/18 15:53:22;;;;;;;0.55;0.38;;;11.20;70.90;;;;;;5093574;28;20071;-79
2021/05/18 15:55:48;;;;;;;0.60;0.45;;;11.40;70.30;;;;;;5093394;28;20028;-79
2021/05/18 15:58:13;;;;;;;0.82;0.30;;;11.40;70.20;;;;;;5093485;28;20035;-83
2021/05/18 16:00:39;;;;;;;0.90;0.50;;;11.30;69.40;;;;;;5093276;28;20024;-79
2021/05/18 16:03:06;;;;;;;0.95;0.60;;;11.60;69.20;;;;;;5092059;28;20012;-80
2021/05/18 16:05:32;;;;;;;1.65;0.60;;;11.70;68.70;;;;;;5093153;28;20116;-79
2021/05/18 16:08:58;;;;;;;2.10;0.30;;;11.80;66.80;;;;;;5091875;28;20405;-80
2021/05/18 16:10:49;;;;;;;0.45;0.22;;;11.80;66.10;;;;;;5092896;28;20028;-79
2021/05/18 16:13:15;;;;;;;0.95;0.38;;;11.90;65.90;;;;;;5092172;28;20036;-79
2021/05/18 16:15:40;;;;;;;3.25;0.47;;;12.00;65.10;;;;;;5093327;28;20020;-77
2021/05/18 16:18:06;;;;;;;1.00;0.30;;;12.30;64.20;;;;;;5092834;28;20032;-79
2021/05/18 16:20:31;;;;;;;2.28;0.40;;;12.40;64.20;;;;;;5092830;28;20074;-77
2021/05/18 16:22:57;;;;;;;0.35;0.20;;;12.60;64.20;;;;;;5092939;28;20034;-79
2021/05/18 16:25:23;;;;;;;0.30;0.30;;;12.70;63.40;;;;;;5092766;28;20021;-79
2021/05/18 16:27:48;;;;;;;1.23;0.45;;;12.80;62.50;;;;;;5092846;28;20107;-80
2021/05/18 16:30:14;;;;;;;1.45;0.40;;;12.90;62.40;;;;;;5092661;28;20034;-80
2021/05/18 16:32:40;;;;;;;0.38;0.30;;;12.90;62.60;;;;;;5092618;28;20488;-79
2021/05/18 16:35:06;;;;;;;3.67;0.93;;;13.00;62.70;;;;;;5092855;28;20070;-79
2021/05/18 16:37:31;;;;;;;2.67;0.70;;;13.00;62.40;;;;;;5092744;28;20048;-80
2021/05/18 16:39:57;;;;;;;2.33;0.70;;;13.10;62.80;;;;;;5091451;28;20024;-79
2021/05/18 16:42:23;;;;;;;0.45;0.40;;;13.20;62.80;;;;;;5092703;28;20024;-78
2021/05/18 16:44:49;;;;;;;1.90;0.57;;;13.30;62.00;;;;;;5092617;28;20523;-79
2021/05/18 16:47:14;;;;;;;1.42;0.60;;;13.40;61.10;;;;;;5092616;28;20534;-78
2021/05/18 16:49:40;;;;;;;1.17;0.30;;;13.50;60.90;;;;;;5092749;28;20385;-79
2021/05/18 16:52:05;;;;;;;1.23;0.30;;;13.60;60.30;;;;;;5092323;28;20024;-78
2021/05/18 16:54:31;;;;;;;0.43;0.20;;;13.70;59.80;;;;;;5092811;28;20502;-79
2021/05/18 16:56:57;;;;;;;1.40;0.50;;;13.70;59.40;;;;;;5091472;28;20097;-79
2021/05/18 16:59:22;;;;;;;1.02;0.30;;;13.80;59.40;;;;;;5092610;28;20028;-81
2021/05/18 17:01:48;;;;;;;2.00;0.50;;;13.80;59.20;;;;;;5092681;28;20020;-81
2021/05/18 17:04:16;;;;;;;1.98;0.35;;;13.80;59.60;;;;;;5092879;28;20024;-79
2021/05/18 17:06:42;;;;;;;1.08;0.30;;;13.70;61.10;;;;;;5091371;28;20016;-79
2021/05/18 17:09:09;;;;;;;0.93;0.60;;;13.50;60.30;;;;;;5092674;28;20389;-79
2021/05/18 17:11:36;;;;;;;2.22;0.60;;;13.40;60.50;;;;;;5092556;28;20081;-79
2021/05/18 17:14:02;;;;;;;0.80;0.60;;;13.30;61.20;;;;;;5092551;28;20016;-79
2021/05/18 17:16:28;;;;;;;1.65;0.47;;;13.00;61.70;;;;;;5092708;28;20043;-79
2021/05/18 17:18:54;;;;;;;1.98;0.40;;;12.80;62.30;;;;;;5091093;28;20476;-82
2021/05/18 17:21:19;;;;;;;1.10;0.63;;;12.70;63.10;;;;;;5092510;28;20016;-80
2021/05/18 17:23:45;;;;;;;1.70;0.50;;;12.50;64.10;;;;;;5091732;28;20114;-79
2021/05/18 17:26:11;;;;;;;2.38;0.50;;;12.40;65.60;;;;;;5096215;28;20073;-81
2021/05/18 17:28:39;;;;;;;1.85;0.70;;;12.20;66.70;;;;;;5096101;28;20106;-78
2021/05/18 17:31:06;;;;;;;0.75;0.52;;;12.10;67.70;;;;;;5096071;28;20016;-78
2021/05/18 17:33:32;;;;;;;3.30;0.90;;;12.00;68.70;;;;;;5095861;28;20457;-79
2021/05/18 17:35:58;;;;;;;2.05;0.70;;;11.90;69.60;;;;;;5096186;28;20077;-80
2021/05/18 17:38:23;;;;;;;0.93;0.70;;;11.90;70.00;;;;;;5094914;28;20059;-81
2021/05/18 17:40:49;;;;;;;0.80;0.77;;;11.80;70.10;;;;;;5096131;28;20024;-75
2021/05/18 17:43:14;;;;;;;2.75;0.70;;;11.90;72.60;;;;;;5095837;28;20081;-74